Time;durP1;ratioP1;P1;durP2;ratioP2;P2;SDS_P1;SDS_P2;PMS_P1;PMS_P2;Temp;Humidity;BMP_temperature;BMP_pressure;BME280_temperature;BME280_humidity;BME280_pressure;Samples;Min_cycle;Max_cycle;Signal;HPM_P1;HPM_P2
2022/02/02 00:02:17;;;;;;;3.83;1.53;;;9.40;99.90;;;;;;5050990;28;20206;-63
2022/02/02 00:04:47;;;;;;;3.70;1.70;;;9.40;99.90;;;;;;5051044;28;20229;-63
2022/02/02 00:07:28;;;;;;;2.93;1.70;;;9.40;99.90;;;;;;5051139;28;20348;-63
2022/02/02 00:10:03;;;;;;;3.23;1.60;;;9.40;99.90;;;;;;5051437;28;20209;-63
2022/02/02 00:12:40;;;;;;;3.83;2.10;;;9.40;99.90;;;;;;5050884;28;20288;-63
2022/02/02 00:15:29;;;;;;;4.10;1.83;;;9.40;99.90;;;;;;5051039;28;20595;-62
2022/02/02 00:18:10;;;;;;;5.40;2.00;;;9.40;99.90;;;;;;5050756;28;20661;-63
2022/02/02 00:20:49;;;;;;;5.13;2.30;;;9.40;99.90;;;;;;5051144;28;20289;-61
2022/02/02 00:23:19;;;;;;;3.40;2.03;;;9.40;99.90;;;;;;5050855;28;20214;-62
2022/02/02 00:25:51;;;;;;;4.13;2.23;;;9.40;99.90;;;;;;5051021;28;20226;-61
2022/02/02 00:28:21;;;;;;;3.93;2.33;;;9.50;99.90;;;;;;5051176;28;20249;-61
2022/02/02 00:30:48;;;;;;;4.20;2.50;;;9.50;99.90;;;;;;5054627;28;20201;-61
2022/02/02 00:33:21;;;;;;;2.87;1.97;;;9.60;99.90;;;;;;5054237;28;20210;-61
2022/02/02 00:35:58;;;;;;;6.87;2.47;;;9.60;99.90;;;;;;5054361;28;20253;-61
2022/02/02 00:38:25;;;;;;;5.73;2.20;;;9.60;99.90;;;;;;5054954;28;20207;-61
2022/02/02 00:40:51;;;;;;;5.40;2.30;;;9.50;99.90;;;;;;5054640;28;20210;-61
2022/02/02 00:43:18;;;;;;;5.20;2.30;;;9.50;99.90;;;;;;5054386;28;20205;-62
2022/02/02 00:45:47;;;;;;;3.47;2.07;;;9.40;99.90;;;;;;5054471;28;20226;-61
2022/02/02 00:48:16;;;;;;;2.93;1.77;;;9.50;99.90;;;;;;5054075;28;20236;-61
2022/02/02 00:50:44;;;;;;;3.87;1.90;;;9.40;99.90;;;;;;5054667;28;20278;-63
2022/02/02 00:53:11;;;;;;;2.80;2.10;;;9.40;99.90;;;;;;5054102;28;20201;-63
2022/02/02 00:55:38;;;;;;;4.47;1.90;;;9.40;99.90;;;;;;5054062;28;20275;-63
2022/02/02 00:58:05;;;;;;;3.23;2.10;;;9.30;99.90;;;;;;5054057;28;20615;-63
2022/02/02 01:00:32;;;;;;;2.77;1.90;;;9.30;99.90;;;;;;5053990;28;20210;-63
2022/02/02 01:02:59;;;;;;;3.47;2.10;;;9.30;99.90;;;;;;5053594;28;20213;-63
2022/02/02 01:05:26;;;;;;;5.93;2.37;;;9.30;99.90;;;;;;5053898;28;20237;-63
2022/02/02 01:08:20;;;;;;;4.37;2.17;;;9.20;99.90;;;;;;5053910;28;20232;-63
2022/02/02 01:10:56;;;;;;;6.27;2.60;;;9.10;99.90;;;;;;5054101;28;20216;-63
2022/02/02 01:13:57;;;;;;;4.63;2.60;;;8.90;99.90;;;;;;5053746;28;20936;-63
2022/02/02 01:17:10;;;;;;;5.07;2.87;;;8.70;99.90;;;;;;5053630;28;20205;-63
2022/02/02 01:19:32;;;;;;;6.87;3.67;;;8.60;99.90;;;;;;5053383;28;20205;-63
2022/02/02 01:22:15;;;;;;;8.33;3.67;;;8.50;99.90;;;;;;5053423;28;20662;-63
2022/02/02 01:27:49;;;;;;;6.20;3.27;;;8.30;99.90;;;;;;5053515;28;20568;-62
2022/02/02 01:30:16;;;;;;;8.50;4.23;;;8.20;99.90;;;;;;5053581;28;20296;-61
2022/02/02 01:32:43;;;;;;;5.57;2.60;;;8.00;99.90;;;;;;5053048;28;20582;-64
2022/02/02 01:35:14;;;;;;;7.50;3.20;;;7.90;99.90;;;;;;5053390;28;20290;-62
2022/02/02 01:37:41;;;;;;;9.37;2.20;;;7.80;99.90;;;;;;5053395;28;20206;-61
2022/02/02 01:40:18;;;;;;;11.57;2.60;;;7.60;99.90;;;;;;5052802;28;20205;-62
2022/02/02 01:42:51;;;;;;;14.13;3.30;;;7.30;99.90;;;;;;5052974;28;20665;-62
2022/02/02 01:45:21;;;;;;;12.57;3.33;;;7.10;99.90;;;;;;5053298;28;20527;-63
2022/02/02 01:47:58;;;;;;;16.27;3.73;;;7.00;99.90;;;;;;5053163;28;20226;-62
2022/02/02 01:50:35;;;;;;;17.13;3.17;;;7.10;99.90;;;;;;5053622;28;20215;-62
2022/02/02 01:53:13;;;;;;;12.43;2.83;;;7.20;99.90;;;;;;5053538;28;20278;-62
2022/02/02 01:55:42;;;;;;;11.63;2.70;;;7.20;99.90;;;;;;5052924;28;20221;-62
2022/02/02 01:58:25;;;;;;;12.17;2.53;;;7.20;99.90;;;;;;5052963;28;20205;-62
2022/02/02 02:00:51;;;;;;;10.43;2.43;;;7.20;99.90;;;;;;5052974;28;20217;-61
2022/02/02 02:03:18;;;;;;;9.00;2.40;;;7.20;99.90;;;;;;5052478;28;20206;-61
2022/02/02 02:05:45;;;;;;;7.87;3.07;;;7.10;99.90;;;;;;5052888;28;20226;-61
2022/02/02 02:08:12;;;;;;;9.17;2.60;;;7.00;99.90;;;;;;5052843;28;20572;-61
2022/02/02 02:10:39;;;;;;;8.80;2.30;;;6.90;99.90;;;;;;5052714;28;20217;-61
2022/02/02 02:13:11;;;;;;;11.30;2.53;;;7.00;99.90;;;;;;5052704;28;20206;-61
2022/02/02 02:15:40;;;;;;;6.20;2.10;;;6.90;99.90;;;;;;5052557;28;20237;-62
2022/02/02 02:18:07;;;;;;;7.23;2.27;;;6.90;99.90;;;;;;5052663;28;20203;-62
2022/02/02 02:20:33;;;;;;;6.90;1.63;;;6.80;99.90;;;;;;5052642;28;20621;-62
2022/02/02 02:23:01;;;;;;;10.53;1.87;;;6.80;99.90;;;;;;5052523;28;20271;-62
2022/02/02 02:25:31;;;;;;;3.10;1.40;;;6.90;99.90;;;;;;5052658;28;20228;-62
2022/02/02 02:28:08;;;;;;;4.23;1.40;;;7.00;99.90;;;;;;5053208;28;20283;-62
2022/02/02 02:30:45;;;;;;;6.13;1.73;;;7.10;99.90;;;;;;5052523;28;20209;-62
2022/02/02 02:33:50;;;;;;;2.87;1.03;;;7.20;99.90;;;;;;5052916;28;20244;-61
2022/02/02 02:36:43;;;;;;;3.13;1.33;;;7.30;99.90;;;;;;5052616;28;20468;-63
2022/02/02 02:39:37;;;;;;;4.20;1.37;;;7.50;99.90;;;;;;5052434;28;20236;-61
2022/02/02 02:55:53;;;;;;;2.23;1.10;;;7.80;99.90;;;;;;5052076;28;20216;-62
2022/02/02 02:58:35;;;;;;;5.03;1.30;;;7.80;99.90;;;;;;5052136;28;20201;-63
2022/02/02 03:01:18;;;;;;;2.80;1.20;;;7.70;99.90;;;;;;5052097;28;20206;-62
2022/02/02 03:31:30;;;;;;;7.53;3.40;;;8.30;99.90;;;;;;5051375;28;20764;-62
2022/02/02 03:50:54;;;;;;;14.33;3.90;;;8.30;99.90;;;;;;5051399;28;20209;-62
2022/02/02 03:53:55;;;;;;;12.10;3.30;;;8.20;99.90;;;;;;5051395;28;20423;-62
2022/02/02 03:56:40;;;;;;;10.17;3.33;;;8.10;99.90;;;;;;5051437;28;20220;-62
2022/02/02 03:59:25;;;;;;;9.00;3.10;;;8.20;99.90;;;;;;5051323;28;20206;-62
2022/02/02 04:02:28;;;;;;;10.37;3.67;;;8.20;99.90;;;;;;5051175;28;20202;-62
2022/02/02 04:05:19;;;;;;;8.67;3.40;;;8.30;99.90;;;;;;5055406;28;20225;-62
2022/02/02 04:07:50;;;;;;;7.67;2.80;;;8.40;99.90;;;;;;5055111;28;20654;-62
2022/02/02 04:10:17;;;;;;;10.57;3.97;;;8.40;99.90;;;;;;5055006;28;20264;-62
2022/02/02 04:12:51;;;;;;;9.57;3.53;;;8.40;99.90;;;;;;5054451;28;20209;-62
2022/02/02 04:37:36;;;;;;;9.37;2.83;;;8.60;99.90;;;;;;5054430;28;20677;-62
2022/02/02 04:57:04;;;;;;;10.37;2.87;;;8.20;99.90;;;;;;5054265;28;20572;-62
2022/02/02 04:59:36;;;;;;;10.90;3.17;;;8.30;99.90;;;;;;5053750;28;20685;-62
2022/02/02 05:07:38;;;;;;;11.10;2.73;;;8.20;99.90;;;;;;5051805;28;20207;-63
2022/02/02 05:10:15;;;;;;;8.90;2.57;;;8.30;99.90;;;;;;5053802;28;20226;-63
2022/02/02 05:15:51;;;;;;;11.77;3.87;;;8.30;99.90;;;;;;5014564;28;20230;-63
2022/02/02 05:18:43;;;;;;;8.63;2.83;;;8.30;99.90;;;;;;5054150;28;20247;-63
2022/02/02 05:21:36;;;;;;;9.37;3.13;;;8.30;99.90;;;;;;5054129;28;20211;-61
2022/02/02 05:41:22;;;;;;;11.33;2.90;;;8.30;99.90;;;;;;5053440;28;20715;-62
2022/02/02 05:44:00;;;;;;;13.80;5.03;;;8.30;99.90;;;;;;5052575;28;20568;-61
2022/02/02 05:49:27;;;;;;;11.57;3.13;;;8.00;99.90;;;;;;5052981;28;20742;-61
2022/02/02 05:51:55;;;;;;;11.70;3.10;;;7.90;99.90;;;;;;5052764;28;20213;-62
2022/02/02 05:54:23;;;;;;;11.93;3.37;;;7.90;99.90;;;;;;5052914;28;20241;-61
2022/02/02 05:56:53;;;;;;;10.80;3.50;;;7.90;99.90;;;;;;5052785;28;20631;-61
2022/02/02 05:59:22;;;;;;;11.50;3.57;;;8.00;99.90;;;;;;5052339;28;20198;-62
2022/02/02 06:01:51;;;;;;;11.97;3.30;;;7.90;99.90;;;;;;5052453;28;20251;-62
2022/02/02 06:04:22;;;;;;;14.23;3.40;;;7.80;99.90;;;;;;5052499;28;20229;-61
2022/02/02 06:06:50;;;;;;;11.13;3.27;;;7.80;99.90;;;;;;5053320;28;20205;-62
2022/02/02 06:09:17;;;;;;;9.27;2.90;;;7.80;99.90;;;;;;5052155;28;20320;-61
2022/02/02 06:11:44;;;;;;;13.80;3.20;;;7.70;99.90;;;;;;5052438;28;20209;-62
2022/02/02 06:14:13;;;;;;;12.83;3.50;;;7.80;99.90;;;;;;5052359;28;20244;-61
2022/02/02 06:16:42;;;;;;;11.23;3.10;;;7.80;99.90;;;;;;5052132;28;20563;-62
2022/02/02 06:19:09;;;;;;;16.30;3.70;;;7.70;99.90;;;;;;5052232;28;20202;-61
2022/02/02 06:21:37;;;;;;;13.57;4.30;;;7.60;99.90;;;;;;5052009;28;20269;-62
2022/02/02 06:24:09;;;;;;;16.20;3.73;;;7.50;99.90;;;;;;5052468;28;20229;-61
2022/02/02 06:26:37;;;;;;;12.87;3.17;;;7.50;99.90;;;;;;5052145;28;20279;-62
2022/02/02 06:29:05;;;;;;;10.33;3.30;;;7.30;99.90;;;;;;5052194;28;20226;-62
2022/02/02 06:31:36;;;;;;;13.47;4.60;;;7.30;99.90;;;;;;5051887;28;20210;-61
2022/02/02 06:34:06;;;;;;;9.63;3.60;;;7.30;99.90;;;;;;5052063;28;20682;-62
2022/02/02 06:36:35;;;;;;;11.80;3.07;;;7.30;99.90;;;;;;5052240;28;20641;-62
2022/02/02 06:39:03;;;;;;;12.70;3.20;;;7.50;99.90;;;;;;5052185;28;20696;-61
2022/02/02 06:41:30;;;;;;;9.27;3.33;;;7.50;99.90;;;;;;5052968;28;20312;-61
2022/02/02 06:43:57;;;;;;;17.97;4.63;;;7.60;99.90;;;;;;5052142;28;20221;-62
2022/02/02 06:46:29;;;;;;;11.73;3.30;;;7.60;99.90;;;;;;5051883;28;20296;-62
2022/02/02 06:48:59;;;;;;;14.53;3.93;;;7.70;99.90;;;;;;5051873;28;20226;-62
2022/02/02 06:51:32;;;;;;;10.17;3.17;;;7.70;99.90;;;;;;5051621;28;20700;-61
2022/02/02 06:54:04;;;;;;;12.67;3.37;;;7.70;99.90;;;;;;5051627;28;20226;-62
2022/02/02 06:56:42;;;;;;;13.83;3.67;;;7.70;99.90;;;;;;5052091;28;20205;-62
2022/02/02 06:59:30;;;;;;;12.53;3.43;;;7.80;99.90;;;;;;5051566;28;20661;-62
2022/02/02 07:02:15;;;;;;;18.10;3.50;;;7.90;99.90;;;;;;5051680;28;20206;-61
2022/02/02 07:08:01;;;;;;;16.20;3.73;;;8.10;99.90;;;;;;5026777;28;20422;-62
2022/02/02 07:10:46;;;;;;;10.80;3.10;;;8.20;99.90;;;;;;5051634;28;20229;-61
2022/02/02 07:13:25;;;;;;;11.27;4.30;;;8.20;99.90;;;;;;5051076;28;20201;-61
2022/02/02 07:16:06;;;;;;;11.20;3.37;;;8.30;99.90;;;;;;5051135;28;20324;-62
2022/02/02 07:18:40;;;;;;;12.33;3.40;;;8.40;99.90;;;;;;5051712;28;20293;-62
2022/02/02 07:21:23;;;;;;;12.93;3.63;;;8.50;99.90;;;;;;5051584;28;20204;-61
2022/02/02 07:29:20;;;;;;;11.43;3.00;;;8.60;99.90;;;;;;5049676;28;20703;-62
2022/02/02 07:31:57;;;;;;;16.03;3.87;;;8.70;99.90;;;;;;5051198;28;20212;-62
2022/02/02 07:34:38;;;;;;;12.03;3.63;;;8.80;99.90;;;;;;5051451;28;20228;-61
2022/02/02 07:37:11;;;;;;;11.47;3.27;;;8.80;99.90;;;;;;5051731;28;20206;-62
2022/02/02 07:39:40;;;;;;;10.80;2.93;;;8.90;99.90;;;;;;5055726;28;20205;-62
2022/02/02 07:42:10;;;;;;;12.37;3.37;;;9.00;99.90;;;;;;5055050;28;20295;-62
2022/02/02 07:44:40;;;;;;;11.03;3.60;;;9.00;99.90;;;;;;5055886;28;20708;-62
2022/02/02 07:47:10;;;;;;;15.00;3.67;;;9.00;99.90;;;;;;5055346;28;20660;-62
2022/02/02 07:49:40;;;;;;;9.33;3.20;;;9.10;99.90;;;;;;5055314;28;20229;-62
2022/02/02 07:52:11;;;;;;;12.80;5.00;;;9.10;99.90;;;;;;5054902;28;20201;-62
2022/02/02 07:54:42;;;;;;;8.20;2.77;;;9.10;99.90;;;;;;5054913;28;20261;-62
2022/02/02 07:57:13;;;;;;;11.17;3.37;;;9.20;99.90;;;;;;5055689;28;20205;-62
2022/02/02 07:59:52;;;;;;;12.00;3.77;;;9.10;99.90;;;;;;5056429;28;20205;-62
2022/02/02 08:02:23;;;;;;;12.77;3.60;;;9.20;99.90;;;;;;5057169;28;20275;-60
2022/02/02 08:04:49;;;;;;;10.43;3.07;;;9.50;99.90;;;;;;5054856;28;20230;-60
2022/02/02 08:07:24;;;;;;;10.87;2.70;;;9.60;99.90;;;;;;5055131;28;20205;-66
2022/02/02 08:10:07;;;;;;;9.77;2.80;;;9.80;99.90;;;;;;5055103;28;20225;-65
2022/02/02 08:12:42;;;;;;;9.70;3.20;;;9.90;99.90;;;;;;5054878;28;20241;-65
2022/02/02 08:15:10;;;;;;;10.07;2.80;;;9.90;99.90;;;;;;5054604;28;20264;-65
2022/02/02 08:17:38;;;;;;;11.17;2.97;;;9.80;99.90;;;;;;5054861;28;20209;-65
2022/02/02 08:20:06;;;;;;;11.30;3.20;;;9.70;99.90;;;;;;5054556;28;20205;-66
2022/02/02 08:22:34;;;;;;;11.17;3.83;;;9.70;99.90;;;;;;5054394;28;20205;-66
2022/02/02 08:25:04;;;;;;;11.00;3.17;;;9.60;99.90;;;;;;5054669;28;20705;-65
2022/02/02 08:27:37;;;;;;;10.70;3.33;;;9.50;99.90;;;;;;5054833;28;20209;-65
2022/02/02 08:30:06;;;;;;;11.27;3.37;;;9.70;99.90;;;;;;5054453;28;20225;-65
2022/02/02 08:32:40;;;;;;;12.50;3.60;;;9.60;99.90;;;;;;5054153;28;20259;-66
2022/02/02 08:35:07;;;;;;;10.40;3.30;;;9.60;99.90;;;;;;5054179;28;20795;-66
2022/02/02 08:37:37;;;;;;;12.60;3.35;;;9.80;99.90;;;;;;5053387;28;20431;-66
2022/02/02 08:40:19;;;;;;;10.53;2.90;;;9.80;99.90;;;;;;5054449;28;20259;-65
2022/02/02 08:42:45;;;;;;;12.37;3.30;;;9.70;99.90;;;;;;5051695;28;20240;-64
2022/02/02 08:45:18;;;;;;;11.30;3.07;;;9.70;99.90;;;;;;5054276;28;20234;-67
2022/02/02 08:47:54;;;;;;;10.77;3.23;;;9.80;99.90;;;;;;5054540;28;20210;-63
2022/02/02 08:50:28;;;;;;;14.47;3.40;;;9.70;99.90;;;;;;5052981;28;20716;-67
2022/02/02 08:53:03;;;;;;;13.23;3.63;;;9.80;99.90;;;;;;5054733;28;20304;-67
2022/02/02 08:58:30;;;;;;;16.27;4.20;;;10.00;99.90;;;;;;5054314;28;20207;-68
2022/02/02 09:00:58;;;;;;;10.80;2.93;;;10.10;99.90;;;;;;5054025;28;20209;-66
2022/02/02 09:06:10;;;;;;;12.67;3.40;;;10.00;99.90;;;;;;5054208;28;20263;-66
2022/02/02 09:08:38;;;;;;;12.00;3.03;;;10.00;99.90;;;;;;5053997;28;20267;-66
2022/02/02 09:25:02;;;;;;;12.90;3.50;;;10.20;99.90;;;;;;5054296;28;20712;-62
2022/02/02 09:33:24;;;;;;;12.10;4.00;;;10.10;99.90;;;;;;5053618;28;20196;-63
2022/02/02 09:35:51;;;;;;;11.07;3.20;;;10.10;99.90;;;;;;5053242;28;20230;-62
2022/02/02 09:38:18;;;;;;;20.83;4.40;;;10.10;99.90;;;;;;5053425;28;20236;-62
2022/02/02 09:41:25;;;;;;;14.03;3.43;;;10.00;99.90;;;;;;5053658;28;20616;-62
2022/02/02 09:43:56;;;;;;;11.37;3.50;;;9.90;99.90;;;;;;5053203;28;20239;-63
2022/02/02 09:46:28;;;;;;;11.50;3.67;;;10.00;99.90;;;;;;5053473;28;20707;-63
2022/02/02 09:48:58;;;;;;;16.20;3.93;;;10.10;99.90;;;;;;5053510;28;20680;-63
2022/02/02 09:51:30;;;;;;;13.27;4.67;;;10.10;99.90;;;;;;5053036;28;20236;-63
2022/02/02 09:54:01;;;;;;;13.43;3.80;;;10.10;99.90;;;;;;5052803;28;20226;-62
2022/02/02 09:56:48;;;;;;;11.50;3.10;;;10.10;99.90;;;;;;5053089;28;20535;-63
2022/02/02 09:59:26;;;;;;;11.57;3.70;;;10.10;99.90;;;;;;5053136;28;20335;-63
2022/02/02 10:02:27;;;;;;;15.67;4.07;;;10.30;99.90;;;;;;5052201;28;20206;-63
2022/02/02 10:05:03;;;;;;;16.73;3.87;;;10.40;99.90;;;;;;5053085;28;20237;-63
2022/02/02 10:07:49;;;;;;;15.63;4.03;;;10.60;99.90;;;;;;5052798;28;20295;-63
2022/02/02 10:10:49;;;;;;;14.37;3.93;;;10.50;99.90;;;;;;5052865;28;20225;-63
2022/02/02 10:13:35;;;;;;;10.50;3.07;;;10.50;99.90;;;;;;5052702;28;20212;-63
2022/02/02 10:16:02;;;;;;;15.10;3.60;;;10.60;99.90;;;;;;5052661;28;20585;-63
2022/02/02 10:18:31;;;;;;;18.80;3.70;;;10.60;99.90;;;;;;5052488;28;20209;-63
2022/02/02 10:20:59;;;;;;;21.57;4.27;;;10.60;99.90;;;;;;5052826;28;20209;-63
2022/02/02 10:23:28;;;;;;;12.77;4.40;;;10.50;99.90;;;;;;5052366;28;20639;-63
2022/02/02 10:25:58;;;;;;;10.80;3.80;;;10.70;99.90;;;;;;5052742;28;20232;-63
2022/02/02 10:28:31;;;;;;;12.87;3.63;;;10.80;99.90;;;;;;5052706;28;20209;-63
2022/02/02 10:31:03;;;;;;;16.80;3.40;;;11.00;99.90;;;;;;5052442;28;20300;-63
2022/02/02 10:33:31;;;;;;;13.43;3.37;;;11.00;99.90;;;;;;5052395;28;20214;-63
2022/02/02 10:36:05;;;;;;;12.30;4.03;;;11.00;99.90;;;;;;5052477;28;20305;-63
2022/02/02 10:38:39;;;;;;;12.70;3.20;;;11.00;99.90;;;;;;5052656;28;20321;-63
2022/02/02 10:41:16;;;;;;;14.43;4.00;;;11.00;99.90;;;;;;5052625;28;20307;-64
2022/02/02 10:43:51;;;;;;;12.97;3.77;;;11.00;99.90;;;;;;5051761;28;20665;-63
2022/02/02 10:46:24;;;;;;;11.50;3.23;;;11.00;99.90;;;;;;5052763;28;20240;-63
2022/02/02 10:48:58;;;;;;;14.03;3.83;;;10.90;99.90;;;;;;5052378;28;20256;-63
2022/02/02 10:51:34;;;;;;;12.87;3.60;;;10.80;99.90;;;;;;5053197;28;20233;-63
2022/02/02 10:54:08;;;;;;;12.93;3.17;;;10.60;99.90;;;;;;5052313;28;20229;-63
2022/02/02 10:56:41;;;;;;;14.17;4.07;;;10.60;99.90;;;;;;5052482;28;20201;-63
2022/02/02 10:59:23;;;;;;;14.20;4.07;;;10.60;99.90;;;;;;5052268;28;20259;-63
2022/02/02 11:06:36;;;;;;;11.77;3.20;;;10.60;99.90;;;;;;5052388;28;20209;-63
2022/02/02 11:07:25;;;;;;;13.27;3.77;;;10.60;99.90;;;;;;5051956;28;20208;-62
2022/02/02 11:09:52;;;;;;;11.63;2.90;;;10.70;99.90;;;;;;5052184;28;20233;-62
2022/02/02 11:12:28;;;;;;;13.23;3.50;;;10.70;99.90;;;;;;5051477;28;20206;-62
2022/02/02 11:15:08;;;;;;;15.73;3.63;;;10.90;99.90;;;;;;5052399;28;20245;-62
2022/02/02 11:17:47;;;;;;;12.20;3.47;;;10.80;99.90;;;;;;5052310;28;20714;-63
2022/02/02 11:20:15;;;;;;;13.73;3.67;;;10.80;99.90;;;;;;5052091;28;20685;-62
2022/02/02 11:22:53;;;;;;;13.47;3.40;;;10.80;99.90;;;;;;5051719;28;20666;-63
2022/02/02 11:25:33;;;;;;;14.43;3.70;;;10.70;99.90;;;;;;5052059;28;20296;-63
2022/02/02 11:28:01;;;;;;;11.63;3.00;;;10.70;99.90;;;;;;5052316;28;20271;-62
2022/02/02 11:30:44;;;;;;;15.17;4.03;;;10.90;99.90;;;;;;5051737;28;20237;-63
2022/02/02 11:33:22;;;;;;;16.03;3.77;;;11.10;99.90;;;;;;5051750;28;20205;-62
2022/02/02 11:35:51;;;;;;;18.20;3.80;;;11.40;99.90;;;;;;5052027;28;20248;-63
2022/02/02 11:38:35;;;;;;;14.97;3.40;;;11.40;99.90;;;;;;5051968;28;20214;-64
2022/02/02 11:41:22;;;;;;;10.40;3.30;;;11.40;99.90;;;;;;5051916;28;20206;-62
2022/02/02 11:43:53;;;;;;;12.63;3.80;;;11.30;99.90;;;;;;5051261;28;20699;-62
2022/02/02 11:46:41;;;;;;;12.10;3.63;;;11.20;99.90;;;;;;5052280;28;20201;-63
2022/02/02 11:49:15;;;;;;;15.23;4.87;;;11.20;99.90;;;;;;5051524;28;20205;-62
2022/02/02 11:51:43;;;;;;;11.47;3.17;;;11.10;99.90;;;;;;5051633;28;20226;-63
2022/02/02 11:54:11;;;;;;;15.43;3.70;;;11.10;99.90;;;;;;5051902;28;20709;-63
2022/02/02 11:57:16;;;;;;;13.57;3.40;;;11.20;99.90;;;;;;5051667;28;20613;-62
2022/02/02 11:59:52;;;;;;;15.47;4.53;;;11.30;99.90;;;;;;5052121;28;20221;-63
2022/02/02 12:02:37;;;;;;;16.17;3.70;;;11.20;99.90;;;;;;5052622;28;20209;-63
2022/02/02 12:05:12;;;;;;;15.63;3.50;;;11.20;99.90;;;;;;5053347;28;20236;-63
2022/02/02 12:08:01;;;;;;;10.93;3.50;;;11.20;99.90;;;;;;5052517;28;20251;-63
2022/02/02 12:10:53;;;;;;;17.57;3.73;;;11.10;99.90;;;;;;5052247;28;20240;-62
2022/02/02 12:47:11;;;;;;;11.83;3.20;;;10.80;99.90;;;;;;5049883;28;20216;-64
2022/02/02 12:49:47;;;;;;;13.57;4.23;;;10.80;99.90;;;;;;5034670;28;20217;-68
2022/02/02 12:57:54;;;;;;;11.70;3.30;;;11.00;99.90;;;;;;5034995;28;20328;-67
2022/02/02 13:00:22;;;;;;;21.90;3.93;;;10.90;99.90;;;;;;5035150;28;20583;-65
2022/02/02 13:02:50;;;;;;;15.83;3.50;;;11.00;99.90;;;;;;5034695;28;20264;-65
2022/02/02 13:05:24;;;;;;;10.07;3.77;;;11.00;99.90;;;;;;5035404;28;20284;-65
2022/02/02 13:07:53;;;;;;;13.43;3.37;;;11.00;99.90;;;;;;5035913;28;20264;-64
2022/02/02 13:10:23;;;;;;;12.63;2.83;;;11.00;99.90;;;;;;5037326;28;20300;-62
2022/02/02 13:12:54;;;;;;;12.80;3.30;;;10.90;99.90;;;;;;5035556;28;20209;-64
2022/02/02 13:15:32;;;;;;;11.03;2.93;;;11.00;99.90;;;;;;5034479;28;20349;-62
2022/02/02 13:18:10;;;;;;;22.17;8.50;;;11.00;99.90;;;;;;5034571;28;20296;-62
2022/02/02 13:20:53;;;;;;;12.90;4.10;;;11.00;99.90;;;;;;5034477;28;20336;-63
2022/02/02 13:23:35;;;;;;;12.50;2.90;;;10.90;99.90;;;;;;5035516;28;20623;-62
2022/02/02 13:26:08;;;;;;;13.20;2.80;;;10.60;99.90;;;;;;5035083;28;20685;-61
2022/02/02 13:28:41;;;;;;;12.83;3.33;;;10.50;99.90;;;;;;5035542;28;20211;-62
2022/02/02 13:31:09;;;;;;;14.73;3.73;;;10.40;99.90;;;;;;5035127;28;20234;-62
2022/02/02 13:33:41;;;;;;;12.97;3.30;;;10.50;99.90;;;;;;5034493;28;20693;-62
2022/02/02 13:36:23;;;;;;;12.00;3.30;;;10.50;99.90;;;;;;5034518;28;20273;-62
2022/02/02 13:39:28;;;;;;;9.97;2.73;;;10.30;99.90;;;;;;5037756;28;20230;-62
2022/02/02 13:44:57;;;;;;;9.23;2.73;;;9.90;99.90;;;;;;5036110;28;20296;-62
2022/02/02 13:50:42;;;;;;;11.80;3.07;;;10.10;99.90;;;;;;4999163;28;20201;-62
2022/02/02 13:56:57;;;;;;;12.17;3.20;;;10.70;99.90;;;;;;5009163;28;20583;-62
2022/02/02 14:02:18;;;;;;;12.57;3.20;;;11.20;99.90;;;;;;5031602;28;20195;-62
2022/02/02 14:05:16;;;;;;;11.33;3.10;;;11.40;99.90;;;;;;5033174;28;20232;-62
2022/02/02 14:07:49;;;;;;;15.93;3.50;;;11.60;99.90;;;;;;5032897;28;20583;-62
2022/02/02 14:10:33;;;;;;;13.00;2.87;;;11.70;99.90;;;;;;5033319;28;20626;-62
2022/02/02 14:32:13;;;;;;;12.83;3.87;;;12.20;99.90;;;;;;5032582;28;20237;-63
2022/02/02 14:34:39;;;;;;;14.87;4.00;;;12.20;99.90;;;;;;5032500;28;20226;-63
2022/02/02 14:37:13;;;;;;;11.43;3.63;;;12.20;99.90;;;;;;5033417;28;20214;-63
2022/02/02 14:39:49;;;;;;;15.27;4.67;;;12.30;99.90;;;;;;5032217;28;20229;-63
2022/02/02 14:42:21;;;;;;;11.90;3.70;;;12.10;99.90;;;;;;5032243;28;20284;-62
2022/02/02 14:44:49;;;;;;;11.07;3.27;;;12.00;99.90;;;;;;5032353;28;20292;-63
2022/02/02 14:47:22;;;;;;;14.87;4.03;;;11.90;99.90;;;;;;5031301;28;20253;-63
2022/02/02 14:49:50;;;;;;;11.60;3.33;;;11.80;99.90;;;;;;5032083;28;20586;-63
2022/02/02 14:52:27;;;;;;;15.00;3.50;;;11.60;99.90;;;;;;5032019;28;20229;-63
2022/02/02 14:55:27;;;;;;;10.13;3.43;;;11.60;99.90;;;;;;5032247;28;20256;-63
2022/02/02 15:26:24;;;;;;;9.17;3.20;;;11.50;99.90;;;;;;5032003;28;20283;-63
2022/02/02 15:28:43;;;;;;;13.87;4.30;;;11.50;99.90;;;;;;5033222;28;20216;-64
2022/02/02 15:31:10;;;;;;;14.60;5.07;;;11.60;99.90;;;;;;5031678;28;20233;-63
2022/02/02 15:33:38;;;;;;;12.10;3.40;;;11.60;99.90;;;;;;5031446;28;20594;-63
2022/02/02 15:38:49;;;;;;;12.30;3.47;;;11.30;99.90;;;;;;5008913;28;20202;-62
2022/02/02 15:41:22;;;;;;;17.07;6.13;;;11.20;99.90;;;;;;5031929;28;20263;-62
2022/02/02 15:44:44;;;;;;;14.70;5.10;;;11.00;99.90;;;;;;5031254;28;20210;-63
2022/02/02 15:55:02;;;;;;;10.20;3.67;;;10.10;99.90;;;;;;5031629;28;20225;-62
2022/02/02 15:58:08;;;;;;;10.27;4.70;;;9.90;99.90;;;;;;5031583;28;20206;-62
2022/02/02 16:03:27;;;;;;;5.47;2.27;;;9.70;99.90;;;;;;5035615;28;20205;-64
2022/02/02 16:06:00;;;;;;;6.37;2.40;;;9.60;99.90;;;;;;5037076;28;20257;-64
2022/02/02 16:08:28;;;;;;;5.90;2.27;;;9.50;99.90;;;;;;5035948;28;20206;-62
2022/02/02 16:11:05;;;;;;;13.67;6.70;;;9.40;99.90;;;;;;5035240;28;20206;-63
2022/02/02 16:13:37;;;;;;;7.77;2.80;;;9.30;99.90;;;;;;5035156;28;20202;-63
2022/02/02 16:16:13;;;;;;;7.80;3.10;;;9.20;99.90;;;;;;5035826;28;20210;-61
2022/02/02 16:18:45;;;;;;;7.57;2.67;;;9.00;99.90;;;;;;5035398;28;20214;-64
2022/02/02 16:37:46;;;;;;;5.13;2.77;;;8.80;99.90;;;;;;5025993;28;20212;-61
2022/02/02 16:40:17;;;;;;;6.70;2.97;;;8.80;99.90;;;;;;5035098;28;20217;-61
2022/02/02 16:43:07;;;;;;;8.33;3.40;;;8.70;99.90;;;;;;5034938;28;20662;-61
2022/02/02 16:45:35;;;;;;;9.63;3.50;;;8.70;99.90;;;;;;5035074;28;20222;-60
2022/02/02 16:48:02;;;;;;;9.83;3.13;;;8.60;99.90;;;;;;5035252;28;20207;-61
2022/02/02 16:50:32;;;;;;;6.37;3.43;;;8.60;99.90;;;;;;5035175;28;20212;-61
2022/02/02 16:53:05;;;;;;;9.57;4.13;;;8.60;99.90;;;;;;5034319;28;20229;-62
2022/02/02 16:55:38;;;;;;;9.70;4.23;;;8.60;99.90;;;;;;5035254;28;20234;-62
2022/02/02 16:58:19;;;;;;;8.87;4.00;;;8.60;99.90;;;;;;5034755;28;20225;-63
2022/02/02 17:31:29;;;;;;;5.23;3.20;;;8.60;99.90;;;;;;5034066;28;20916;-60
2022/02/02 17:34:00;;;;;;;12.63;7.00;;;8.60;99.90;;;;;;5033712;28;20210;-59
2022/02/02 17:36:31;;;;;;;5.83;3.10;;;8.70;99.90;;;;;;5033438;28;20269;-59
2022/02/02 17:39:02;;;;;;;8.53;3.60;;;8.70;99.90;;;;;;5033562;28;20640;-59
2022/02/02 18:12:35;;;;;;;11.70;7.20;;;8.50;99.90;;;;;;4971619;28;20267;-58
2022/02/02 18:20:40;;;;;;;8.63;3.83;;;8.30;99.90;;;;;;5032745;28;20213;-59
2022/02/02 18:23:16;;;;;;;6.30;3.23;;;8.30;99.90;;;;;;5032138;28;20218;-60
2022/02/02 18:25:48;;;;;;;7.57;3.37;;;8.30;99.90;;;;;;5032437;28;20316;-58
2022/02/02 18:28:22;;;;;;;5.10;3.40;;;8.20;99.90;;;;;;5032217;28;20732;-58
2022/02/02 18:31:03;;;;;;;7.33;4.00;;;8.20;99.90;;;;;;5032405;28;20292;-57
2022/02/02 18:33:42;;;;;;;8.73;3.40;;;8.30;99.90;;;;;;5032231;28;20630;-60
2022/02/02 18:36:22;;;;;;;6.70;3.33;;;8.40;99.90;;;;;;5032306;28;20721;-59
2022/02/02 18:44:40;;;;;;;10.00;5.67;;;8.50;99.90;;;;;;5032026;28;20205;-59
2022/02/02 18:47:17;;;;;;;7.87;4.40;;;8.50;99.90;;;;;;5032218;28;20210;-59
2022/02/02 18:55:26;;;;;;;7.53;4.70;;;8.60;99.90;;;;;;5021417;28;20679;-59
2022/02/02 18:58:04;;;;;;;12.43;5.40;;;8.70;99.90;;;;;;5031726;28;20205;-59
2022/02/02 19:03:38;;;;;;;7.90;4.80;;;8.80;99.90;;;;;;5027945;28;20198;-60
2022/02/02 19:06:35;;;;;;;6.37;4.13;;;8.80;99.90;;;;;;5031871;28;20237;-59
2022/02/02 19:56:25;;;;;;;7.27;5.30;;;8.20;99.90;;;;;;5031869;28;20218;-61
2022/02/02 20:01:56;;;;;;;7.77;5.73;;;8.10;99.90;;;;;;4974594;28;20278;-60
2022/02/02 20:04:44;;;;;;;9.60;5.40;;;8.00;99.90;;;;;;5024117;28;20245;-60
2022/02/02 20:07:25;;;;;;;7.80;5.97;;;7.90;99.90;;;;;;5035642;28;20206;-61
2022/02/02 20:10:02;;;;;;;8.00;6.27;;;7.80;99.90;;;;;;5035814;28;20242;-60
2022/02/02 20:12:32;;;;;;;8.73;5.87;;;7.70;99.90;;;;;;5035475;28;20222;-60
2022/02/02 20:14:59;;;;;;;7.73;5.97;;;7.70;99.90;;;;;;5034997;28;20238;-60
2022/02/02 20:17:27;;;;;;;9.80;7.77;;;7.60;99.90;;;;;;5035359;28;20213;-60
2022/02/02 20:19:57;;;;;;;10.43;6.90;;;7.60;99.90;;;;;;5035772;28;20260;-60
2022/02/02 20:22:27;;;;;;;27.03;16.20;;;7.50;99.90;;;;;;5035721;28;20260;-61
2022/02/02 20:24:58;;;;;;;27.07;17.30;;;7.40;99.90;;;;;;5035232;28;20230;-61
2022/02/02 20:27:26;;;;;;;38.10;21.67;;;7.30;99.90;;;;;;5034980;28;20229;-60
2022/02/02 20:29:52;;;;;;;27.67;16.10;;;7.20;99.90;;;;;;5035349;28;20229;-60
2022/02/02 20:32:19;;;;;;;25.43;15.70;;;7.20;99.90;;;;;;5034578;28;20767;-61